sensor_id;sensor_type;location;lat;lon;timestamp;temperature;humidity
6792;DHT22;3433;48.730;9.108;2023-04-03T00:01:41;6.10;99.90
6792;DHT22;3433;48.730;9.108;2023-04-03T00:04:30;6.10;99.90
6792;DHT22;3433;48.730;9.108;2023-04-03T00:07:17;6.10;99.90
6792;DHT22;3433;48.730;9.108;2023-04-03T00:10:06;6.10;99.90
6792;DHT22;3433;48.730;9.108;2023-04-03T00:12:55;6.10;99.90
6792;DHT22;3433;48.730;9.108;2023-04-03T00:15:42;6.10;99.90
6792;DHT22;3433;48.730;9.108;2023-04-03T00:18:31;6.00;99.90
6792;DHT22;3433;48.730;9.108;2023-04-03T00:21:19;6.00;99.90
6792;DHT22;3433;48.730;9.108;2023-04-03T00:24:07;6.00;99.90
6792;DHT22;3433;48.730;9.108;2023-04-03T00:26:54;6.00;99.90
6792;DHT22;3433;48.730;9.108;2023-04-03T00:29:41;6.00;99.90
6792;DHT22;3433;48.730;9.108;2023-04-03T00:32:29;6.00;99.90
6792;DHT22;3433;48.730;9.108;2023-04-03T00:35:17;6.00;99.90
6792;DHT22;3433;48.730;9.108;2023-04-03T00:38:06;5.90;99.90
6792;DHT22;3433;48.730;9.108;2023-04-03T00:40:53;6.00;99.90
6792;DHT22;3433;48.730;9.108;2023-04-03T00:43:40;6.00;99.90
6792;DHT22;3433;48.730;9.108;2023-04-03T00:46:28;6.00;99.90
6792;DHT22;3433;48.730;9.108;2023-04-03T00:49:15;6.00;99.90
6792;DHT22;3433;48.730;9.108;2023-04-03T00:52:03;6.00;99.90
6792;DHT22;3433;48.730;9.108;2023-04-03T00:54:57;6.00;99.90
6792;DHT22;3433;48.730;9.108;2023-04-03T00:57:46;6.00;99.90
6792;DHT22;3433;48.730;9.108;2023-04-03T01:00:34;5.90;99.90
6792;DHT22;3433;48.730;9.108;2023-04-03T01:03:23;5.90;99.90
6792;DHT22;3433;48.730;9.108;2023-04-03T01:06:10;5.90;99.90
6792;DHT22;3433;48.730;9.108;2023-04-03T01:08:59;5.90;99.90
6792;DHT22;3433;48.730;9.108;2023-04-03T01:11:48;5.90;99.90
6792;DHT22;3433;48.730;9.108;2023-04-03T01:14:36;5.90;99.90
6792;DHT22;3433;48.730;9.108;2023-04-03T01:24:30;5.90;99.90
6792;DHT22;3433;48.730;9.108;2023-04-03T01:27:20;5.80;99.90
6792;DHT22;3433;48.730;9.108;2023-04-03T01:30:08;5.80;99.90
6792;DHT22;3433;48.730;9.108;2023-04-03T01:32:58;5.90;99.90
6792;DHT22;3433;48.730;9.108;2023-04-03T01:35:45;5.80;99.90
6792;DHT22;3433;48.730;9.108;2023-04-03T01:38:33;5.80;99.90
6792;DHT22;3433;48.730;9.108;2023-04-03T01:41:21;5.70;99.90
6792;DHT22;3433;48.730;9.108;2023-04-03T01:44:09;5.70;99.90
6792;DHT22;3433;48.730;9.108;2023-04-03T01:46:56;5.70;99.90
6792;DHT22;3433;48.730;9.108;2023-04-03T01:49:45;5.70;99.90
6792;DHT22;3433;48.730;9.108;2023-04-03T01:52:32;5.80;99.90
6792;DHT22;3433;48.730;9.108;2023-04-03T01:55:20;5.70;99.90
6792;DHT22;3433;48.730;9.108;2023-04-03T01:58:07;5.70;99.90
6792;DHT22;3433;48.730;9.108;2023-04-03T02:00:54;5.60;99.90
6792;DHT22;3433;48.730;9.108;2023-04-03T02:03:42;5.70;99.90
6792;DHT22;3433;48.730;9.108;2023-04-03T02:06:30;5.60;99.90
6792;DHT22;3433;48.730;9.108;2023-04-03T02:09:18;5.60;99.90
6792;DHT22;3433;48.730;9.108;2023-04-03T02:12:05;5.60;99.90
6792;DHT22;3433;48.730;9.108;2023-04-03T02:14:53;5.60;99.90
6792;DHT22;3433;48.730;9.108;2023-04-03T02:17:40;5.70;99.90
6792;DHT22;3433;48.730;9.108;2023-04-03T02:20:31;5.60;99.90
6792;DHT22;3433;48.730;9.108;2023-04-03T02:23:19;5.60;99.90
6792;DHT22;3433;48.730;9.108;2023-04-03T02:26:09;5.60;99.90
6792;DHT22;3433;48.730;9.108;2023-04-03T02:28:56;5.70;99.90
6792;DHT22;3433;48.730;9.108;2023-04-03T02:31:44;5.70;99.90
6792;DHT22;3433;48.730;9.108;2023-04-03T02:34:31;5.70;99.90
6792;DHT22;3433;48.730;9.108;2023-04-03T02:37:18;5.60;99.90
6792;DHT22;3433;48.730;9.108;2023-04-03T02:40:08;5.60;99.90
6792;DHT22;3433;48.730;9.108;2023-04-03T02:42:57;5.60;99.90
6792;DHT22;3433;48.730;9.108;2023-04-03T02:45:44;5.60;99.90
6792;DHT22;3433;48.730;9.108;2023-04-03T02:48:32;5.60;99.90
6792;DHT22;3433;48.730;9.108;2023-04-03T02:51:19;5.60;99.90
6792;DHT22;3433;48.730;9.108;2023-04-03T02:54:06;5.60;99.90
6792;DHT22;3433;48.730;9.108;2023-04-03T02:56:55;5.60;99.90
6792;DHT22;3433;48.730;9.108;2023-04-03T02:59:42;5.60;99.90
6792;DHT22;3433;48.730;9.108;2023-04-03T03:02:30;5.60;99.90
6792;DHT22;3433;48.730;9.108;2023-04-03T03:05:17;5.60;99.90
6792;DHT22;3433;48.730;9.108;2023-04-03T03:08:04;5.60;99.90
6792;DHT22;3433;48.730;9.108;2023-04-03T03:10:51;5.70;99.90
6792;DHT22;3433;48.730;9.108;2023-04-03T03:13:40;5.50;99.90
6792;DHT22;3433;48.730;9.108;2023-04-03T03:16:27;5.40;99.90
6792;DHT22;3433;48.730;9.108;2023-04-03T03:19:14;5.40;99.90
6792;DHT22;3433;48.730;9.108;2023-04-03T03:22:01;5.40;99.90
6792;DHT22;3433;48.730;9.108;2023-04-03T03:24:49;5.50;99.90
6792;DHT22;3433;48.730;9.108;2023-04-03T03:27:36;5.50;99.90
6792;DHT22;3433;48.730;9.108;2023-04-03T03:30:24;5.50;99.90
6792;DHT22;3433;48.730;9.108;2023-04-03T03:33:12;5.40;99.90
6792;DHT22;3433;48.730;9.108;2023-04-03T03:35:59;5.50;99.90
6792;DHT22;3433;48.730;9.108;2023-04-03T03:38:46;5.50;99.90
6792;DHT22;3433;48.730;9.108;2023-04-03T03:41:33;5.50;99.90
6792;DHT22;3433;48.730;9.108;2023-04-03T03:44:21;5.50;99.90
6792;DHT22;3433;48.730;9.108;2023-04-03T03:47:10;5.50;99.90
6792;DHT22;3433;48.730;9.108;2023-04-03T03:49:57;5.40;99.90
6792;DHT22;3433;48.730;9.108;2023-04-03T03:52:44;5.50;99.90
6792;DHT22;3433;48.730;9.108;2023-04-03T03:55:31;5.50;99.90
6792;DHT22;3433;48.730;9.108;2023-04-03T03:58:18;5.50;99.90
6792;DHT22;3433;48.730;9.108;2023-04-03T04:01:06;5.50;99.90
6792;DHT22;3433;48.730;9.108;2023-04-03T04:03:55;5.50;99.90
6792;DHT22;3433;48.730;9.108;2023-04-03T04:06:42;5.40;99.90
6792;DHT22;3433;48.730;9.108;2023-04-03T04:09:29;5.40;99.90
6792;DHT22;3433;48.730;9.108;2023-04-03T04:12:16;5.30;99.90
6792;DHT22;3433;48.730;9.108;2023-04-03T04:15:04;5.40;99.90
6792;DHT22;3433;48.730;9.108;2023-04-03T04:17:52;5.20;99.90
6792;DHT22;3433;48.730;9.108;2023-04-03T04:20:40;5.30;99.90
6792;DHT22;3433;48.730;9.108;2023-04-03T04:23:28;5.30;99.90
6792;DHT22;3433;48.730;9.108;2023-04-03T04:26:15;5.40;99.90
6792;DHT22;3433;48.730;9.108;2023-04-03T04:29:02;5.40;99.90
6792;DHT22;3433;48.730;9.108;2023-04-03T04:31:49;5.30;99.90
6792;DHT22;3433;48.730;9.108;2023-04-03T04:34:36;5.30;99.90
6792;DHT22;3433;48.730;9.108;2023-04-03T04:37:25;5.30;99.90
6792;DHT22;3433;48.730;9.108;2023-04-03T04:40:12;5.30;99.90
6792;DHT22;3433;48.730;9.108;2023-04-03T04:43:00;5.40;99.90
6792;DHT22;3433;48.730;9.108;2023-04-03T04:45:47;5.40;99.90
6792;DHT22;3433;48.730;9.108;2023-04-03T04:48:35;5.50;99.90
6792;DHT22;3433;48.730;9.108;2023-04-03T04:51:22;5.50;99.90
6792;DHT22;3433;48.730;9.108;2023-04-03T04:54:10;5.50;99.90
6792;DHT22;3433;48.730;9.108;2023-04-03T04:56:58;5.50;99.90
6792;DHT22;3433;48.730;9.108;2023-04-03T04:59:45;5.50;99.90
6792;DHT22;3433;48.730;9.108;2023-04-03T05:02:32;5.50;99.90
6792;DHT22;3433;48.730;9.108;2023-04-03T05:05:19;5.50;99.90
6792;DHT22;3433;48.730;9.108;2023-04-03T05:08:07;5.50;99.90
6792;DHT22;3433;48.730;9.108;2023-04-03T05:10:56;5.50;99.90
6792;DHT22;3433;48.730;9.108;2023-04-03T05:13:43;5.50;99.90
6792;DHT22;3433;48.730;9.108;2023-04-03T05:16:30;5.50;99.60
6792;DHT22;3433;48.730;9.108;2023-04-03T05:19:17;5.50;99.90
6792;DHT22;3433;48.730;9.108;2023-04-03T05:22:04;5.50;99.90
6792;DHT22;3433;48.730;9.108;2023-04-03T05:24:52;5.50;99.30
6792;DHT22;3433;48.730;9.108;2023-04-03T05:27:40;5.50;99.90
6792;DHT22;3433;48.730;9.108;2023-04-03T05:30:27;5.50;99.90
6792;DHT22;3433;48.730;9.108;2023-04-03T05:33:15;5.50;99.80
6792;DHT22;3433;48.730;9.108;2023-04-03T05:36:03;5.50;99.70
6792;DHT22;3433;48.730;9.108;2023-04-03T05:38:51;5.50;99.40
6792;DHT22;3433;48.730;9.108;2023-04-03T05:41:38;5.60;99.50
6792;DHT22;3433;48.730;9.108;2023-04-03T05:44:27;5.50;99.60
6792;DHT22;3433;48.730;9.108;2023-04-03T05:47:14;5.60;99.90
6792;DHT22;3433;48.730;9.108;2023-04-03T05:50:02;6.10;99.90
6792;DHT22;3433;48.730;9.108;2023-04-03T05:52:51;6.50;99.90
6792;DHT22;3433;48.730;9.108;2023-04-03T05:55:39;6.70;99.90
6792;DHT22;3433;48.730;9.108;2023-04-03T05:58:26;6.70;99.90
6792;DHT22;3433;48.730;9.108;2023-04-03T06:01:15;6.50;99.90
6792;DHT22;3433;48.730;9.108;2023-04-03T06:04:02;6.60;99.90
6792;DHT22;3433;48.730;9.108;2023-04-03T06:06:51;6.50;99.30
6792;DHT22;3433;48.730;9.108;2023-04-03T06:09:39;6.40;99.10
6792;DHT22;3433;48.730;9.108;2023-04-03T06:12:26;6.20;99.00
6792;DHT22;3433;48.730;9.108;2023-04-03T06:15:14;6.20;99.30
6792;DHT22;3433;48.730;9.108;2023-04-03T06:18:04;6.10;98.90
6792;DHT22;3433;48.730;9.108;2023-04-03T06:20:52;6.20;99.00
6792;DHT22;3433;48.730;9.108;2023-04-03T06:23:39;6.00;98.10
6792;DHT22;3433;48.730;9.108;2023-04-03T06:26:27;6.00;98.90
6792;DHT22;3433;48.730;9.108;2023-04-03T06:29:15;5.90;99.30
6792;DHT22;3433;48.730;9.108;2023-04-03T06:32:02;5.90;99.30
6792;DHT22;3433;48.730;9.108;2023-04-03T06:34:50;5.80;99.00
6792;DHT22;3433;48.730;9.108;2023-04-03T06:37:39;5.90;99.60
6792;DHT22;3433;48.730;9.108;2023-04-03T06:40:26;5.90;99.00
6792;DHT22;3433;48.730;9.108;2023-04-03T06:43:13;6.00;99.60
6792;DHT22;3433;48.730;9.108;2023-04-03T06:46:00;6.00;98.90
6792;DHT22;3433;48.730;9.108;2023-04-03T06:48:49;6.00;99.30
6792;DHT22;3433;48.730;9.108;2023-04-03T06:51:37;6.00;99.40
6792;DHT22;3433;48.730;9.108;2023-04-03T06:54:25;6.10;99.20
6792;DHT22;3433;48.730;9.108;2023-04-03T06:57:12;6.20;99.10
6792;DHT22;3433;48.730;9.108;2023-04-03T06:59:59;6.20;99.20
6792;DHT22;3433;48.730;9.108;2023-04-03T07:02:46;6.10;99.50
6792;DHT22;3433;48.730;9.108;2023-04-03T07:05:34;6.20;99.50
6792;DHT22;3433;48.730;9.108;2023-04-03T07:08:22;6.30;99.50
6792;DHT22;3433;48.730;9.108;2023-04-03T07:11:12;6.20;99.10
6792;DHT22;3433;48.730;9.108;2023-04-03T07:13:59;6.20;99.40
6792;DHT22;3433;48.730;9.108;2023-04-03T07:16:47;6.20;99.10
6792;DHT22;3433;48.730;9.108;2023-04-03T07:19:34;6.10;99.10
6792;DHT22;3433;48.730;9.108;2023-04-03T07:22:21;6.10;99.30
6792;DHT22;3433;48.730;9.108;2023-04-03T07:25:10;5.80;98.10
6792;DHT22;3433;48.730;9.108;2023-04-03T07:27:57;5.90;98.60
6792;DHT22;3433;48.730;9.108;2023-04-03T07:30:45;5.90;98.50
6792;DHT22;3433;48.730;9.108;2023-04-03T07:33:33;6.00;98.80
6792;DHT22;3433;48.730;9.108;2023-04-03T07:36:22;6.00;99.10
6792;DHT22;3433;48.730;9.108;2023-04-03T07:39:09;6.20;99.10
6792;DHT22;3433;48.730;9.108;2023-04-03T07:41:58;6.10;99.10
6792;DHT22;3433;48.730;9.108;2023-04-03T07:44:46;6.30;99.20
6792;DHT22;3433;48.730;9.108;2023-04-03T07:47:33;6.40;99.50
6792;DHT22;3433;48.730;9.108;2023-04-03T07:50:21;6.50;99.30
6792;DHT22;3433;48.730;9.108;2023-04-03T07:53:09;6.50;99.30
6792;DHT22;3433;48.730;9.108;2023-04-03T07:55:57;6.60;99.20
6792;DHT22;3433;48.730;9.108;2023-04-03T07:58:47;6.80;99.40
6792;DHT22;3433;48.730;9.108;2023-04-03T08:01:34;6.70;99.50
6792;DHT22;3433;48.730;9.108;2023-04-03T08:04:21;6.90;99.50
6792;DHT22;3433;48.730;9.108;2023-04-03T08:07:08;7.00;98.50
6792;DHT22;3433;48.730;9.108;2023-04-03T08:09:55;6.20;97.90
6792;DHT22;3433;48.730;9.108;2023-04-03T08:12:45;6.40;98.50
6792;DHT22;3433;48.730;9.108;2023-04-03T08:15:34;6.60;99.10
6792;DHT22;3433;48.730;9.108;2023-04-03T08:18:21;6.80;99.40
6792;DHT22;3433;48.730;9.108;2023-04-03T08:21:11;7.10;99.60
6792;DHT22;3433;48.730;9.108;2023-04-03T08:23:58;7.20;99.40
6792;DHT22;3433;48.730;9.108;2023-04-03T08:26:46;7.30;99.30
6792;DHT22;3433;48.730;9.108;2023-04-03T08:29:33;7.30;98.80
6792;DHT22;3433;48.730;9.108;2023-04-03T08:32:22;7.30;98.50
6792;DHT22;3433;48.730;9.108;2023-04-03T08:35:09;7.40;98.70
6792;DHT22;3433;48.730;9.108;2023-04-03T08:37:56;7.30;98.20
6792;DHT22;3433;48.730;9.108;2023-04-03T08:40:44;7.20;98.10
6792;DHT22;3433;48.730;9.108;2023-04-03T08:43:36;7.30;98.80
6792;DHT22;3433;48.730;9.108;2023-04-03T08:46:31;7.40;98.70
6792;DHT22;3433;48.730;9.108;2023-04-03T08:49:26;7.30;98.40
6792;DHT22;3433;48.730;9.108;2023-04-03T08:52:16;7.30;98.80
6792;DHT22;3433;48.730;9.108;2023-04-03T08:55:06;7.40;98.70
6792;DHT22;3433;48.730;9.108;2023-04-03T08:58:00;7.50;98.80
6792;DHT22;3433;48.730;9.108;2023-04-03T09:00:55;7.60;99.00
6792;DHT22;3433;48.730;9.108;2023-04-03T09:07:00;7.90;98.70
6792;DHT22;3433;48.730;9.108;2023-04-03T09:10:11;8.00;99.40
6792;DHT22;3433;48.730;9.108;2023-04-03T09:13:39;8.00;99.00
6792;DHT22;3433;48.730;9.108;2023-04-03T09:17:12;7.70;98.10
6792;DHT22;3433;48.730;9.108;2023-04-03T09:20:33;7.90;99.10
6792;DHT22;3433;48.730;9.108;2023-04-03T09:23:39;7.90;98.50
6792;DHT22;3433;48.730;9.108;2023-04-03T09:26:42;8.10;98.70
6792;DHT22;3433;48.730;9.108;2023-04-03T09:32:58;8.20;98.50
6792;DHT22;3433;48.730;9.108;2023-04-03T09:35:46;8.10;97.60
6792;DHT22;3433;48.730;9.108;2023-04-03T09:38:36;8.20;96.90
6792;DHT22;3433;48.730;9.108;2023-04-03T09:41:24;8.20;97.60
6792;DHT22;3433;48.730;9.108;2023-04-03T09:44:27;8.10;97.80
6792;DHT22;3433;48.730;9.108;2023-04-03T09:47:36;8.20;98.10
6792;DHT22;3433;48.730;9.108;2023-04-03T09:50:27;8.30;97.80
6792;DHT22;3433;48.730;9.108;2023-04-03T09:53:36;8.40;97.00
6792;DHT22;3433;48.730;9.108;2023-04-03T09:56:30;8.40;97.10
6792;DHT22;3433;48.730;9.108;2023-04-03T10:02:53;8.20;97.20
6792;DHT22;3433;48.730;9.108;2023-04-03T10:05:59;8.20;97.50
6792;DHT22;3433;48.730;9.108;2023-04-03T10:08:59;8.10;97.90
6792;DHT22;3433;48.730;9.108;2023-04-03T10:12:03;8.10;96.50
6792;DHT22;3433;48.730;9.108;2023-04-03T10:14:58;8.10;96.70
6792;DHT22;3433;48.730;9.108;2023-04-03T10:17:53;8.10;97.30
6792;DHT22;3433;48.730;9.108;2023-04-03T10:20:44;8.10;96.50
6792;DHT22;3433;48.730;9.108;2023-04-03T10:23:39;8.10;96.70
6792;DHT22;3433;48.730;9.108;2023-04-03T10:26:35;7.90;96.80
6792;DHT22;3433;48.730;9.108;2023-04-03T10:29:38;8.00;97.60
6792;DHT22;3433;48.730;9.108;2023-04-03T10:32:41;7.90;97.30
6792;DHT22;3433;48.730;9.108;2023-04-03T10:35:39;7.70;96.90
6792;DHT22;3433;48.730;9.108;2023-04-03T10:38:33;7.80;97.00
6792;DHT22;3433;48.730;9.108;2023-04-03T10:41:34;7.90;97.50
6792;DHT22;3433;48.730;9.108;2023-04-03T10:44:32;7.90;97.00
6792;DHT22;3433;48.730;9.108;2023-04-03T10:47:30;8.00;97.70
6792;DHT22;3433;48.730;9.108;2023-04-03T10:50:29;8.00;96.50
6792;DHT22;3433;48.730;9.108;2023-04-03T10:53:24;8.00;97.60
6792;DHT22;3433;48.730;9.108;2023-04-03T10:56:18;7.80;95.80
6792;DHT22;3433;48.730;9.108;2023-04-03T10:59:21;7.60;96.40
6792;DHT22;3433;48.730;9.108;2023-04-03T11:02:16;7.60;97.00
6792;DHT22;3433;48.730;9.108;2023-04-03T11:05:15;7.60;96.50
6792;DHT22;3433;48.730;9.108;2023-04-03T11:08:12;7.50;96.90
6792;DHT22;3433;48.730;9.108;2023-04-03T11:11:05;7.50;96.60
6792;DHT22;3433;48.730;9.108;2023-04-03T11:13:58;7.50;97.00
6792;DHT22;3433;48.730;9.108;2023-04-03T11:16:50;7.60;97.10
6792;DHT22;3433;48.730;9.108;2023-04-03T11:19:45;7.40;96.40
6792;DHT22;3433;48.730;9.108;2023-04-03T11:22:37;7.40;96.10
6792;DHT22;3433;48.730;9.108;2023-04-03T11:25:30;7.50;96.90
6792;DHT22;3433;48.730;9.108;2023-04-03T11:28:18;7.50;97.00
6792;DHT22;3433;48.730;9.108;2023-04-03T11:31:33;7.50;96.40
6792;DHT22;3433;48.730;9.108;2023-04-03T11:38:02;7.40;96.00
6792;DHT22;3433;48.730;9.108;2023-04-03T11:41:10;7.50;96.30
6792;DHT22;3433;48.730;9.108;2023-04-03T11:44:00;7.50;95.80
6792;DHT22;3433;48.730;9.108;2023-04-03T11:47:06;7.50;95.80
6792;DHT22;3433;48.730;9.108;2023-04-03T11:49:59;7.50;96.10
6792;DHT22;3433;48.730;9.108;2023-04-03T11:56:27;7.30;96.10
6792;DHT22;3433;48.730;9.108;2023-04-03T11:59:22;7.30;95.10
6792;DHT22;3433;48.730;9.108;2023-04-03T12:02:35;7.50;95.60
6792;DHT22;3433;48.730;9.108;2023-04-03T12:05:43;7.50;95.50
6792;DHT22;3433;48.730;9.108;2023-04-03T12:08:45;7.50;95.10
6792;DHT22;3433;48.730;9.108;2023-04-03T12:11:35;7.50;94.50
6792;DHT22;3433;48.730;9.108;2023-04-03T12:14:24;7.70;95.90
6792;DHT22;3433;48.730;9.108;2023-04-03T12:17:22;7.70;95.40
6792;DHT22;3433;48.730;9.108;2023-04-03T12:24:04;7.70;95.40
6792;DHT22;3433;48.730;9.108;2023-04-03T12:27:52;7.70;95.60
6792;DHT22;3433;48.730;9.108;2023-04-03T12:32:09;7.80;94.60
6792;DHT22;3433;48.730;9.108;2023-04-03T12:37:48;7.80;95.70
6792;DHT22;3433;48.730;9.108;2023-04-03T12:40:43;7.90;95.90
6792;DHT22;3433;48.730;9.108;2023-04-03T12:47:25;7.90;95.40
6792;DHT22;3433;48.730;9.108;2023-04-03T12:50:19;8.00;95.70
6792;DHT22;3433;48.730;9.108;2023-04-03T12:53:16;8.00;95.10
6792;DHT22;3433;48.730;9.108;2023-04-03T12:56:23;8.00;95.70
6792;DHT22;3433;48.730;9.108;2023-04-03T12:59:16;7.90;94.20
6792;DHT22;3433;48.730;9.108;2023-04-03T13:02:22;8.00;95.30
6792;DHT22;3433;48.730;9.108;2023-04-03T13:05:19;8.00;94.60
6792;DHT22;3433;48.730;9.108;2023-04-03T13:08:11;8.10;94.30
6792;DHT22;3433;48.730;9.108;2023-04-03T13:11:04;8.10;94.80
6792;DHT22;3433;48.730;9.108;2023-04-03T13:13:59;8.00;93.40
6792;DHT22;3433;48.730;9.108;2023-04-03T13:16:58;8.10;94.20
6792;DHT22;3433;48.730;9.108;2023-04-03T13:19:46;8.00;93.90
6792;DHT22;3433;48.730;9.108;2023-04-03T13:22:35;8.30;94.80
6792;DHT22;3433;48.730;9.108;2023-04-03T13:25:30;8.40;93.80
6792;DHT22;3433;48.730;9.108;2023-04-03T13:28:29;8.60;94.50
6792;DHT22;3433;48.730;9.108;2023-04-03T13:31:35;8.60;93.70
6792;DHT22;3433;48.730;9.108;2023-04-03T13:34:25;9.00;94.20
6792;DHT22;3433;48.730;9.108;2023-04-03T13:37:22;8.90;93.30
6792;DHT22;3433;48.730;9.108;2023-04-03T13:40:12;9.10;93.70
6792;DHT22;3433;48.730;9.108;2023-04-03T13:43:03;9.40;93.10
6792;DHT22;3433;48.730;9.108;2023-04-03T13:46:24;9.30;92.70
6792;DHT22;3433;48.730;9.108;2023-04-03T13:49:31;9.40;93.60
6792;DHT22;3433;48.730;9.108;2023-04-03T13:52:40;9.40;92.60
6792;DHT22;3433;48.730;9.108;2023-04-03T13:55:31;9.40;92.80
6792;DHT22;3433;48.730;9.108;2023-04-03T13:58:22;9.50;93.70
6792;DHT22;3433;48.730;9.108;2023-04-03T14:01:17;9.50;92.60
6792;DHT22;3433;48.730;9.108;2023-04-03T14:04:21;9.40;93.30
6792;DHT22;3433;48.730;9.108;2023-04-03T14:07:08;9.40;94.20
6792;DHT22;3433;48.730;9.108;2023-04-03T14:09:56;9.30;92.60
6792;DHT22;3433;48.730;9.108;2023-04-03T14:12:43;9.40;92.80
6792;DHT22;3433;48.730;9.108;2023-04-03T14:15:32;9.40;93.40
6792;DHT22;3433;48.730;9.108;2023-04-03T14:18:55;9.50;93.00
6792;DHT22;3433;48.730;9.108;2023-04-03T14:21:58;9.30;93.30
6792;DHT22;3433;48.730;9.108;2023-04-03T14:25:15;9.30;93.30
6792;DHT22;3433;48.730;9.108;2023-04-03T14:28:21;9.20;92.90
6792;DHT22;3433;48.730;9.108;2023-04-03T14:31:27;9.10;92.80
6792;DHT22;3433;48.730;9.108;2023-04-03T14:34:24;9.00;93.00
6792;DHT22;3433;48.730;9.108;2023-04-03T14:37:33;9.00;93.20
6792;DHT22;3433;48.730;9.108;2023-04-03T14:40:24;8.80;93.10
6792;DHT22;3433;48.730;9.108;2023-04-03T14:43:17;8.70;92.10
6792;DHT22;3433;48.730;9.108;2023-04-03T14:46:12;8.70;92.80
6792;DHT22;3433;48.730;9.108;2023-04-03T14:49:00;8.60;92.10
6792;DHT22;3433;48.730;9.108;2023-04-03T14:51:50;8.60;93.30
6792;DHT22;3433;48.730;9.108;2023-04-03T14:54:42;8.70;91.40
6792;DHT22;3433;48.730;9.108;2023-04-03T14:57:29;9.10;93.50
6792;DHT22;3433;48.730;9.108;2023-04-03T15:00:18;9.40;91.80
6792;DHT22;3433;48.730;9.108;2023-04-03T15:03:08;9.60;92.60
6792;DHT22;3433;48.730;9.108;2023-04-03T15:05:56;9.80;91.30
6792;DHT22;3433;48.730;9.108;2023-04-03T15:08:46;9.90;90.30
6792;DHT22;3433;48.730;9.108;2023-04-03T15:11:35;9.70;91.20
6792;DHT22;3433;48.730;9.108;2023-04-03T15:14:22;9.30;89.60
6792;DHT22;3433;48.730;9.108;2023-04-03T15:17:14;9.30;91.30
6792;DHT22;3433;48.730;9.108;2023-04-03T15:20:03;9.30;90.50
6792;DHT22;3433;48.730;9.108;2023-04-03T15:22:50;9.10;90.30
6792;DHT22;3433;48.730;9.108;2023-04-03T15:25:37;9.10;91.80
6792;DHT22;3433;48.730;9.108;2023-04-03T15:28:30;9.20;92.10
6792;DHT22;3433;48.730;9.108;2023-04-03T15:31:18;9.10;91.80
6792;DHT22;3433;48.730;9.108;2023-04-03T15:34:05;9.10;91.60
6792;DHT22;3433;48.730;9.108;2023-04-03T15:36:52;9.00;91.60
6792;DHT22;3433;48.730;9.108;2023-04-03T15:39:39;9.00;90.90
6792;DHT22;3433;48.730;9.108;2023-04-03T15:42:26;9.10;91.30
6792;DHT22;3433;48.730;9.108;2023-04-03T15:45:15;9.10;91.50
6792;DHT22;3433;48.730;9.108;2023-04-03T15:48:03;9.30;90.80
6792;DHT22;3433;48.730;9.108;2023-04-03T15:50:50;9.40;88.00
6792;DHT22;3433;48.730;9.108;2023-04-03T15:53:37;9.10;90.00
6792;DHT22;3433;48.730;9.108;2023-04-03T15:56:25;9.10;90.50
6792;DHT22;3433;48.730;9.108;2023-04-03T15:59:12;8.90;90.30
6792;DHT22;3433;48.730;9.108;2023-04-03T16:02:01;9.00;91.00
6792;DHT22;3433;48.730;9.108;2023-04-03T16:04:50;8.70;90.50
6792;DHT22;3433;48.730;9.108;2023-04-03T16:07:38;8.30;89.90
6792;DHT22;3433;48.730;9.108;2023-04-03T16:10:27;8.40;90.60
6792;DHT22;3433;48.730;9.108;2023-04-03T16:13:15;8.50;90.10
6792;DHT22;3433;48.730;9.108;2023-04-03T16:16:02;8.60;91.20
6792;DHT22;3433;48.730;9.108;2023-04-03T16:18:51;8.70;90.30
6792;DHT22;3433;48.730;9.108;2023-04-03T16:21:40;8.70;89.90
6792;DHT22;3433;48.730;9.108;2023-04-03T16:24:27;8.80;90.70
6792;DHT22;3433;48.730;9.108;2023-04-03T16:27:15;8.90;91.10
6792;DHT22;3433;48.730;9.108;2023-04-03T16:30:03;8.70;91.00
6792;DHT22;3433;48.730;9.108;2023-04-03T16:32:51;8.60;86.60
6792;DHT22;3433;48.730;9.108;2023-04-03T16:35:40;8.40;91.10
6792;DHT22;3433;48.730;9.108;2023-04-03T16:38:29;8.40;91.30
6792;DHT22;3433;48.730;9.108;2023-04-03T16:41:16;8.40;88.60
6792;DHT22;3433;48.730;9.108;2023-04-03T16:44:03;7.90;85.60
6792;DHT22;3433;48.730;9.108;2023-04-03T16:46:53;8.00;85.20
6792;DHT22;3433;48.730;9.108;2023-04-03T16:49:40;8.00;87.80
6792;DHT22;3433;48.730;9.108;2023-04-03T16:52:28;8.00;89.60
6792;DHT22;3433;48.730;9.108;2023-04-03T16:55:16;7.90;90.30
6792;DHT22;3433;48.730;9.108;2023-04-03T16:58:03;7.80;88.00
6792;DHT22;3433;48.730;9.108;2023-04-03T17:00:50;7.80;89.00
6792;DHT22;3433;48.730;9.108;2023-04-03T17:03:39;7.90;90.40
6792;DHT22;3433;48.730;9.108;2023-04-03T17:06:26;7.90;90.20
6792;DHT22;3433;48.730;9.108;2023-04-03T17:09:15;7.90;89.60
6792;DHT22;3433;48.730;9.108;2023-04-03T17:12:02;7.90;89.50
6792;DHT22;3433;48.730;9.108;2023-04-03T17:14:49;7.80;90.30
6792;DHT22;3433;48.730;9.108;2023-04-03T17:17:37;7.80;90.20
6792;DHT22;3433;48.730;9.108;2023-04-03T17:20:24;7.80;90.60
6792;DHT22;3433;48.730;9.108;2023-04-03T17:23:11;7.70;90.40
6792;DHT22;3433;48.730;9.108;2023-04-03T17:26:00;7.90;91.10
6792;DHT22;3433;48.730;9.108;2023-04-03T17:28:47;7.60;87.80
6792;DHT22;3433;48.730;9.108;2023-04-03T17:31:35;7.60;90.60
6792;DHT22;3433;48.730;9.108;2023-04-03T17:34:22;7.70;90.70
6792;DHT22;3433;48.730;9.108;2023-04-03T17:37:09;7.60;90.60
6792;DHT22;3433;48.730;9.108;2023-04-03T17:39:56;7.70;90.40
6792;DHT22;3433;48.730;9.108;2023-04-03T17:42:45;7.50;90.10
6792;DHT22;3433;48.730;9.108;2023-04-03T17:45:32;7.10;86.70
6792;DHT22;3433;48.730;9.108;2023-04-03T17:48:19;7.30;89.70
6792;DHT22;3433;48.730;9.108;2023-04-03T17:51:07;7.40;90.70
6792;DHT22;3433;48.730;9.108;2023-04-03T17:53:55;7.40;90.60
6792;DHT22;3433;48.730;9.108;2023-04-03T17:56:42;7.40;90.00
6792;DHT22;3433;48.730;9.108;2023-04-03T17:59:34;7.40;89.70
6792;DHT22;3433;48.730;9.108;2023-04-03T18:02:21;7.30;90.60
6792;DHT22;3433;48.730;9.108;2023-04-03T18:05:09;7.30;90.60
6792;DHT22;3433;48.730;9.108;2023-04-03T18:07:57;7.30;90.90
6792;DHT22;3433;48.730;9.108;2023-04-03T18:10:45;7.30;90.10
6792;DHT22;3433;48.730;9.108;2023-04-03T18:13:32;7.10;89.20
6792;DHT22;3433;48.730;9.108;2023-04-03T18:16:23;7.10;90.00
6792;DHT22;3433;48.730;9.108;2023-04-03T18:19:10;7.20;90.90
6792;DHT22;3433;48.730;9.108;2023-04-03T18:22:00;7.30;90.40
6792;DHT22;3433;48.730;9.108;2023-04-03T18:24:48;7.20;90.30
6792;DHT22;3433;48.730;9.108;2023-04-03T18:27:36;7.10;90.40
6792;DHT22;3433;48.730;9.108;2023-04-03T18:30:24;7.00;90.00
6792;DHT22;3433;48.730;9.108;2023-04-03T18:33:12;7.00;90.00
6792;DHT22;3433;48.730;9.108;2023-04-03T18:36:01;7.00;90.40
6792;DHT22;3433;48.730;9.108;2023-04-03T18:38:48;7.00;91.00
6792;DHT22;3433;48.730;9.108;2023-04-03T18:41:36;7.00;90.90
6792;DHT22;3433;48.730;9.108;2023-04-03T18:44:24;7.00;91.20
6792;DHT22;3433;48.730;9.108;2023-04-03T18:47:12;6.90;90.50
6792;DHT22;3433;48.730;9.108;2023-04-03T18:50:02;6.80;91.20
6792;DHT22;3433;48.730;9.108;2023-04-03T18:52:49;6.80;91.00
6792;DHT22;3433;48.730;9.108;2023-04-03T18:55:37;6.70;90.40
6792;DHT22;3433;48.730;9.108;2023-04-03T18:58:24;6.70;90.80
6792;DHT22;3433;48.730;9.108;2023-04-03T19:01:12;6.70;90.60
6792;DHT22;3433;48.730;9.108;2023-04-03T19:04:00;6.50;90.10
6792;DHT22;3433;48.730;9.108;2023-04-03T19:06:49;6.50;90.50
6792;DHT22;3433;48.730;9.108;2023-04-03T19:09:36;6.60;90.20
6792;DHT22;3433;48.730;9.108;2023-04-03T19:12:24;6.50;90.60
6792;DHT22;3433;48.730;9.108;2023-04-03T19:15:12;6.50;90.30
6792;DHT22;3433;48.730;9.108;2023-04-03T19:17:59;6.60;90.40
6792;DHT22;3433;48.730;9.108;2023-04-03T19:20:46;6.60;90.10
6792;DHT22;3433;48.730;9.108;2023-04-03T19:23:35;6.40;89.40
6792;DHT22;3433;48.730;9.108;2023-04-03T19:26:22;6.50;89.60
6792;DHT22;3433;48.730;9.108;2023-04-03T19:29:10;6.40;90.80